sensor_id;sensor_type;location;lat;lon;timestamp;temperature;humidity
56771;DHT22;42641;59.794;17.616;2023-07-24T00:02:23;14.00;99.90
56771;DHT22;42641;59.794;17.616;2023-07-24T00:04:50;14.00;99.90
56771;DHT22;42641;59.794;17.616;2023-07-24T00:07:16;14.00;99.90
56771;DHT22;42641;59.794;17.616;2023-07-24T00:09:43;14.00;99.90
56771;DHT22;42641;59.794;17.616;2023-07-24T00:12:09;14.00;99.90
56771;DHT22;42641;59.794;17.616;2023-07-24T00:14:35;13.90;99.90
56771;DHT22;42641;59.794;17.616;2023-07-24T00:17:02;13.80;99.90
56771;DHT22;42641;59.794;17.616;2023-07-24T00:19:28;13.80;99.90
56771;DHT22;42641;59.794;17.616;2023-07-24T00:21:55;13.70;99.90
56771;DHT22;42641;59.794;17.616;2023-07-24T00:24:21;13.70;99.90
56771;DHT22;42641;59.794;17.616;2023-07-24T00:26:48;13.60;99.90
56771;DHT22;42641;59.794;17.616;2023-07-24T00:29:14;13.60;99.90
56771;DHT22;42641;59.794;17.616;2023-07-24T00:31:42;13.50;99.90
56771;DHT22;42641;59.794;17.616;2023-07-24T00:34:09;13.50;99.90
56771;DHT22;42641;59.794;17.616;2023-07-24T00:36:35;13.40;99.90
56771;DHT22;42641;59.794;17.616;2023-07-24T00:39:02;13.40;99.90
56771;DHT22;42641;59.794;17.616;2023-07-24T00:41:31;13.40;99.90
56771;DHT22;42641;59.794;17.616;2023-07-24T00:43:57;13.40;99.90
56771;DHT22;42641;59.794;17.616;2023-07-24T00:46:24;13.30;99.90
56771;DHT22;42641;59.794;17.616;2023-07-24T00:48:51;13.30;99.90
56771;DHT22;42641;59.794;17.616;2023-07-24T00:51:18;13.20;99.90
56771;DHT22;42641;59.794;17.616;2023-07-24T00:53:45;13.20;99.90
56771;DHT22;42641;59.794;17.616;2023-07-24T00:56:13;13.10;99.90
56771;DHT22;42641;59.794;17.616;2023-07-24T00:58:40;13.10;99.90
56771;DHT22;42641;59.794;17.616;2023-07-24T01:01:06;13.10;99.90
56771;DHT22;42641;59.794;17.616;2023-07-24T01:03:34;13.00;99.90
56771;DHT22;42641;59.794;17.616;2023-07-24T01:06:03;13.10;99.90
56771;DHT22;42641;59.794;17.616;2023-07-24T01:08:31;13.00;99.90
56771;DHT22;42641;59.794;17.616;2023-07-24T01:11:00;13.00;99.90
56771;DHT22;42641;59.794;17.616;2023-07-24T01:13:31;13.00;99.90
56771;DHT22;42641;59.794;17.616;2023-07-24T01:16:18;12.90;99.90
56771;DHT22;42641;59.794;17.616;2023-07-24T01:18:45;12.90;99.90
56771;DHT22;42641;59.794;17.616;2023-07-24T01:21:15;12.90;99.90
56771;DHT22;42641;59.794;17.616;2023-07-24T01:23:59;12.80;99.90
56771;DHT22;42641;59.794;17.616;2023-07-24T01:26:28;12.70;99.90
56771;DHT22;42641;59.794;17.616;2023-07-24T01:28:54;12.70;99.90
56771;DHT22;42641;59.794;17.616;2023-07-24T01:31:21;12.60;99.90
56771;DHT22;42641;59.794;17.616;2023-07-24T01:33:47;12.50;99.90
56771;DHT22;42641;59.794;17.616;2023-07-24T01:36:18;12.50;99.90
56771;DHT22;42641;59.794;17.616;2023-07-24T01:38:47;12.40;99.90
56771;DHT22;42641;59.794;17.616;2023-07-24T01:41:14;12.40;99.90
56771;DHT22;42641;59.794;17.616;2023-07-24T01:43:41;12.40;99.90
56771;DHT22;42641;59.794;17.616;2023-07-24T01:46:08;12.40;99.90
56771;DHT22;42641;59.794;17.616;2023-07-24T01:48:36;12.30;99.90
56771;DHT22;42641;59.794;17.616;2023-07-24T01:51:02;12.20;99.90
56771;DHT22;42641;59.794;17.616;2023-07-24T01:53:29;12.20;99.90
56771;DHT22;42641;59.794;17.616;2023-07-24T01:55:55;12.20;99.90
56771;DHT22;42641;59.794;17.616;2023-07-24T01:58:22;12.20;99.90
56771;DHT22;42641;59.794;17.616;2023-07-24T02:00:48;12.20;99.90
56771;DHT22;42641;59.794;17.616;2023-07-24T02:03:15;12.20;99.90
56771;DHT22;42641;59.794;17.616;2023-07-24T02:05:41;12.20;99.90
56771;DHT22;42641;59.794;17.616;2023-07-24T02:08:08;12.20;99.90
56771;DHT22;42641;59.794;17.616;2023-07-24T02:10:37;12.20;99.90
56771;DHT22;42641;59.794;17.616;2023-07-24T02:13:04;12.10;99.90
56771;DHT22;42641;59.794;17.616;2023-07-24T02:15:32;12.10;99.90
56771;DHT22;42641;59.794;17.616;2023-07-24T02:17:59;12.10;99.90
56771;DHT22;42641;59.794;17.616;2023-07-24T02:20:25;12.00;99.90
56771;DHT22;42641;59.794;17.616;2023-07-24T02:22:52;12.00;99.90
56771;DHT22;42641;59.794;17.616;2023-07-24T02:25:18;11.90;99.90
56771;DHT22;42641;59.794;17.616;2023-07-24T02:27:45;11.90;99.90
56771;DHT22;42641;59.794;17.616;2023-07-24T02:30:11;11.90;99.90
56771;DHT22;42641;59.794;17.616;2023-07-24T02:32:38;11.90;99.90
56771;DHT22;42641;59.794;17.616;2023-07-24T02:35:04;11.80;99.90
56771;DHT22;42641;59.794;17.616;2023-07-24T02:37:31;11.80;99.90
56771;DHT22;42641;59.794;17.616;2023-07-24T02:39:58;11.80;99.90
56771;DHT22;42641;59.794;17.616;2023-07-24T02:42:24;11.80;99.90
56771;DHT22;42641;59.794;17.616;2023-07-24T02:44:51;11.80;99.90
56771;DHT22;42641;59.794;17.616;2023-07-24T02:47:19;11.80;99.90
56771;DHT22;42641;59.794;17.616;2023-07-24T02:49:45;11.80;99.90
56771;DHT22;42641;59.794;17.616;2023-07-24T02:52:12;11.70;99.90
56771;DHT22;42641;59.794;17.616;2023-07-24T02:54:38;11.70;99.90
56771;DHT22;42641;59.794;17.616;2023-07-24T02:57:05;11.80;99.90
56771;DHT22;42641;59.794;17.616;2023-07-24T02:59:31;11.80;99.90
56771;DHT22;42641;59.794;17.616;2023-07-24T03:01:58;11.80;99.90
56771;DHT22;42641;59.794;17.616;2023-07-24T03:04:25;11.80;99.90
56771;DHT22;42641;59.794;17.616;2023-07-24T03:06:51;11.80;99.90
56771;DHT22;42641;59.794;17.616;2023-07-24T03:09:18;11.80;99.90
56771;DHT22;42641;59.794;17.616;2023-07-24T03:11:44;11.80;99.90
56771;DHT22;42641;59.794;17.616;2023-07-24T03:14:11;11.70;99.90
56771;DHT22;42641;59.794;17.616;2023-07-24T03:16:37;11.70;99.90
56771;DHT22;42641;59.794;17.616;2023-07-24T03:19:04;11.60;99.90
56771;DHT22;42641;59.794;17.616;2023-07-24T03:21:30;11.60;99.90
56771;DHT22;42641;59.794;17.616;2023-07-24T03:23:57;11.60;99.90
56771;DHT22;42641;59.794;17.616;2023-07-24T03:26:23;11.70;99.90
56771;DHT22;42641;59.794;17.616;2023-07-24T03:28:50;11.80;99.90
56771;DHT22;42641;59.794;17.616;2023-07-24T03:31:17;11.80;99.90
56771;DHT22;42641;59.794;17.616;2023-07-24T03:33:43;11.90;99.90
56771;DHT22;42641;59.794;17.616;2023-07-24T03:36:09;11.90;99.90
56771;DHT22;42641;59.794;17.616;2023-07-24T03:38:36;12.00;99.90
56771;DHT22;42641;59.794;17.616;2023-07-24T03:41:02;12.00;99.90
56771;DHT22;42641;59.794;17.616;2023-07-24T03:43:30;12.10;99.90
56771;DHT22;42641;59.794;17.616;2023-07-24T03:45:56;12.10;99.90
56771;DHT22;42641;59.794;17.616;2023-07-24T03:48:23;12.10;99.90
56771;DHT22;42641;59.794;17.616;2023-07-24T03:50:50;12.20;99.90
56771;DHT22;42641;59.794;17.616;2023-07-24T03:53:17;12.30;99.90
56771;DHT22;42641;59.794;17.616;2023-07-24T03:55:43;12.40;99.90
56771;DHT22;42641;59.794;17.616;2023-07-24T03:58:10;12.50;99.90
56771;DHT22;42641;59.794;17.616;2023-07-24T04:00:36;12.60;99.90
56771;DHT22;42641;59.794;17.616;2023-07-24T04:03:03;12.80;99.90
56771;DHT22;42641;59.794;17.616;2023-07-24T04:05:29;12.90;99.90
56771;DHT22;42641;59.794;17.616;2023-07-24T04:07:56;13.10;99.90
56771;DHT22;42641;59.794;17.616;2023-07-24T04:10:22;13.20;99.90
56771;DHT22;42641;59.794;17.616;2023-07-24T04:12:49;13.30;99.90
56771;DHT22;42641;59.794;17.616;2023-07-24T04:15:16;13.40;99.90
56771;DHT22;42641;59.794;17.616;2023-07-24T04:17:43;13.60;99.90
56771;DHT22;42641;59.794;17.616;2023-07-24T04:20:09;13.70;99.90
56771;DHT22;42641;59.794;17.616;2023-07-24T04:22:36;13.80;99.90
56771;DHT22;42641;59.794;17.616;2023-07-24T04:25:02;14.00;99.90
56771;DHT22;42641;59.794;17.616;2023-07-24T04:27:29;14.10;99.90
56771;DHT22;42641;59.794;17.616;2023-07-24T04:29:55;14.30;99.90
56771;DHT22;42641;59.794;17.616;2023-07-24T04:32:21;14.40;99.90
56771;DHT22;42641;59.794;17.616;2023-07-24T04:34:48;14.60;99.90
56771;DHT22;42641;59.794;17.616;2023-07-24T04:37:14;14.70;99.90
56771;DHT22;42641;59.794;17.616;2023-07-24T04:39:41;14.80;99.90
56771;DHT22;42641;59.794;17.616;2023-07-24T04:42:07;15.00;99.90
56771;DHT22;42641;59.794;17.616;2023-07-24T04:44:34;15.10;99.90
56771;DHT22;42641;59.794;17.616;2023-07-24T04:47:00;15.20;99.90
56771;DHT22;42641;59.794;17.616;2023-07-24T04:49:29;15.30;99.90
56771;DHT22;42641;59.794;17.616;2023-07-24T04:51:56;15.40;99.90
56771;DHT22;42641;59.794;17.616;2023-07-24T04:54:22;15.50;99.90
56771;DHT22;42641;59.794;17.616;2023-07-24T04:56:48;15.60;99.90
56771;DHT22;42641;59.794;17.616;2023-07-24T04:59:15;15.70;99.90
56771;DHT22;42641;59.794;17.616;2023-07-24T05:01:42;15.80;99.90
56771;DHT22;42641;59.794;17.616;2023-07-24T05:04:08;15.90;99.90
56771;DHT22;42641;59.794;17.616;2023-07-24T05:06:35;16.00;99.90
56771;DHT22;42641;59.794;17.616;2023-07-24T05:09:03;16.10;99.90
56771;DHT22;42641;59.794;17.616;2023-07-24T05:11:29;16.20;99.90
56771;DHT22;42641;59.794;17.616;2023-07-24T05:13:56;16.30;99.90
56771;DHT22;42641;59.794;17.616;2023-07-24T05:16:22;16.40;99.90
56771;DHT22;42641;59.794;17.616;2023-07-24T05:18:49;16.50;99.90
56771;DHT22;42641;59.794;17.616;2023-07-24T05:21:15;16.60;99.90
56771;DHT22;42641;59.794;17.616;2023-07-24T05:23:42;16.70;99.90
56771;DHT22;42641;59.794;17.616;2023-07-24T05:26:08;16.80;99.90
56771;DHT22;42641;59.794;17.616;2023-07-24T05:28:34;16.90;99.90
56771;DHT22;42641;59.794;17.616;2023-07-24T05:31:02;17.00;99.90
56771;DHT22;42641;59.794;17.616;2023-07-24T05:33:30;17.10;99.90
56771;DHT22;42641;59.794;17.616;2023-07-24T05:36:00;17.20;99.90
56771;DHT22;42641;59.794;17.616;2023-07-24T05:38:27;17.30;99.90
56771;DHT22;42641;59.794;17.616;2023-07-24T05:40:58;17.30;99.90
56771;DHT22;42641;59.794;17.616;2023-07-24T05:43:26;17.40;99.90
56771;DHT22;42641;59.794;17.616;2023-07-24T05:45:54;17.50;99.90
56771;DHT22;42641;59.794;17.616;2023-07-24T05:48:21;17.70;99.90
56771;DHT22;42641;59.794;17.616;2023-07-24T05:50:48;17.70;99.90
56771;DHT22;42641;59.794;17.616;2023-07-24T05:53:15;17.80;99.90
56771;DHT22;42641;59.794;17.616;2023-07-24T05:55:42;18.00;99.90
56771;DHT22;42641;59.794;17.616;2023-07-24T05:58:09;18.10;99.90
56771;DHT22;42641;59.794;17.616;2023-07-24T06:00:36;18.30;99.90
56771;DHT22;42641;59.794;17.616;2023-07-24T06:03:03;18.40;99.90
56771;DHT22;42641;59.794;17.616;2023-07-24T06:05:29;18.50;99.90
56771;DHT22;42641;59.794;17.616;2023-07-24T06:07:56;18.60;99.90
56771;DHT22;42641;59.794;17.616;2023-07-24T06:10:22;18.60;99.90
56771;DHT22;42641;59.794;17.616;2023-07-24T06:12:49;18.70;99.90
56771;DHT22;42641;59.794;17.616;2023-07-24T06:15:15;18.70;99.90
56771;DHT22;42641;59.794;17.616;2023-07-24T06:17:42;18.80;99.90
56771;DHT22;42641;59.794;17.616;2023-07-24T06:20:08;18.90;99.90
56771;DHT22;42641;59.794;17.616;2023-07-24T06:22:35;19.10;99.90
56771;DHT22;42641;59.794;17.616;2023-07-24T06:25:03;19.20;99.90
56771;DHT22;42641;59.794;17.616;2023-07-24T06:27:30;19.30;99.90
56771;DHT22;42641;59.794;17.616;2023-07-24T06:29:56;19.40;99.90
56771;DHT22;42641;59.794;17.616;2023-07-24T06:32:23;19.40;99.90
56771;DHT22;42641;59.794;17.616;2023-07-24T06:34:49;19.60;99.90
56771;DHT22;42641;59.794;17.616;2023-07-24T06:37:16;19.70;99.90
56771;DHT22;42641;59.794;17.616;2023-07-24T06:39:42;19.80;99.90
56771;DHT22;42641;59.794;17.616;2023-07-24T06:42:09;19.90;99.90
56771;DHT22;42641;59.794;17.616;2023-07-24T06:44:36;20.00;99.90
56771;DHT22;42641;59.794;17.616;2023-07-24T06:47:03;19.80;99.90
56771;DHT22;42641;59.794;17.616;2023-07-24T06:49:29;19.80;99.90
56771;DHT22;42641;59.794;17.616;2023-07-24T06:51:55;19.90;99.90
56771;DHT22;42641;59.794;17.616;2023-07-24T06:54:22;20.00;99.90
56771;DHT22;42641;59.794;17.616;2023-07-24T06:56:48;20.20;99.90
56771;DHT22;42641;59.794;17.616;2023-07-24T06:59:15;20.30;99.90
56771;DHT22;42641;59.794;17.616;2023-07-24T07:01:41;20.50;99.90
56771;DHT22;42641;59.794;17.616;2023-07-24T07:04:08;20.60;99.90
56771;DHT22;42641;59.794;17.616;2023-07-24T07:06:34;20.70;99.90
56771;DHT22;42641;59.794;17.616;2023-07-24T07:09:00;20.70;99.90
56771;DHT22;42641;59.794;17.616;2023-07-24T07:11:27;20.70;99.90
56771;DHT22;42641;59.794;17.616;2023-07-24T07:13:53;20.80;99.90
56771;DHT22;42641;59.794;17.616;2023-07-24T07:16:20;21.00;99.90
56771;DHT22;42641;59.794;17.616;2023-07-24T07:18:47;21.00;99.90
56771;DHT22;42641;59.794;17.616;2023-07-24T07:21:13;21.00;99.90
56771;DHT22;42641;59.794;17.616;2023-07-24T07:23:40;21.00;99.90
56771;DHT22;42641;59.794;17.616;2023-07-24T07:26:06;21.00;99.90
56771;DHT22;42641;59.794;17.616;2023-07-24T07:28:33;21.10;99.90
56771;DHT22;42641;59.794;17.616;2023-07-24T07:30:59;21.20;99.90
56771;DHT22;42641;59.794;17.616;2023-07-24T07:33:25;21.20;99.90
56771;DHT22;42641;59.794;17.616;2023-07-24T07:35:52;21.30;99.90
56771;DHT22;42641;59.794;17.616;2023-07-24T07:38:18;21.30;99.90
56771;DHT22;42641;59.794;17.616;2023-07-24T07:40:45;21.30;99.90
56771;DHT22;42641;59.794;17.616;2023-07-24T07:43:11;21.40;99.90
56771;DHT22;42641;59.794;17.616;2023-07-24T07:45:38;21.30;99.90
56771;DHT22;42641;59.794;17.616;2023-07-24T07:48:05;21.30;99.90
56771;DHT22;42641;59.794;17.616;2023-07-24T07:50:31;21.30;99.90
56771;DHT22;42641;59.794;17.616;2023-07-24T07:52:58;21.40;99.90
56771;DHT22;42641;59.794;17.616;2023-07-24T07:55:24;21.60;99.90
56771;DHT22;42641;59.794;17.616;2023-07-24T07:57:51;21.70;99.90
56771;DHT22;42641;59.794;17.616;2023-07-24T08:00:18;21.70;99.90
56771;DHT22;42641;59.794;17.616;2023-07-24T08:02:44;21.80;99.90
56771;DHT22;42641;59.794;17.616;2023-07-24T08:05:11;21.70;99.90
56771;DHT22;42641;59.794;17.616;2023-07-24T08:07:38;21.90;99.90
56771;DHT22;42641;59.794;17.616;2023-07-24T08:10:04;22.00;99.90
56771;DHT22;42641;59.794;17.616;2023-07-24T08:12:32;22.00;99.90
56771;DHT22;42641;59.794;17.616;2023-07-24T08:14:59;22.30;99.90
56771;DHT22;42641;59.794;17.616;2023-07-24T08:17:25;22.30;99.90
56771;DHT22;42641;59.794;17.616;2023-07-24T08:19:52;22.50;99.90
56771;DHT22;42641;59.794;17.616;2023-07-24T08:22:18;22.50;99.90
56771;DHT22;42641;59.794;17.616;2023-07-24T08:24:46;22.50;99.90
56771;DHT22;42641;59.794;17.616;2023-07-24T08:27:13;22.70;99.90
56771;DHT22;42641;59.794;17.616;2023-07-24T08:29:39;22.90;99.90
56771;DHT22;42641;59.794;17.616;2023-07-24T08:32:06;22.90;99.90
56771;DHT22;42641;59.794;17.616;2023-07-24T08:34:33;22.90;99.90
56771;DHT22;42641;59.794;17.616;2023-07-24T08:36:59;22.90;99.90
56771;DHT22;42641;59.794;17.616;2023-07-24T08:39:25;23.10;99.90
56771;DHT22;42641;59.794;17.616;2023-07-24T08:41:52;23.30;99.90
56771;DHT22;42641;59.794;17.616;2023-07-24T08:44:20;23.30;99.90
56771;DHT22;42641;59.794;17.616;2023-07-24T08:46:47;23.40;99.90
56771;DHT22;42641;59.794;17.616;2023-07-24T08:49:16;23.40;99.90
56771;DHT22;42641;59.794;17.616;2023-07-24T08:51:44;23.40;99.90
56771;DHT22;42641;59.794;17.616;2023-07-24T08:54:11;23.50;99.90
56771;DHT22;42641;59.794;17.616;2023-07-24T08:56:38;23.70;99.90
56771;DHT22;42641;59.794;17.616;2023-07-24T08:59:06;23.90;99.90
56771;DHT22;42641;59.794;17.616;2023-07-24T09:01:32;23.90;99.90
56771;DHT22;42641;59.794;17.616;2023-07-24T09:03:59;23.90;99.90
56771;DHT22;42641;59.794;17.616;2023-07-24T09:06:26;24.10;99.90
56771;DHT22;42641;59.794;17.616;2023-07-24T09:08:54;24.20;99.90
56771;DHT22;42641;59.794;17.616;2023-07-24T09:11:20;24.30;99.90
56771;DHT22;42641;59.794;17.616;2023-07-24T09:13:47;24.40;99.90
56771;DHT22;42641;59.794;17.616;2023-07-24T09:16:26;24.60;99.90
56771;DHT22;42641;59.794;17.616;2023-07-24T09:18:53;24.60;99.90
56771;DHT22;42641;59.794;17.616;2023-07-24T09:21:30;24.40;99.90
56771;DHT22;42641;59.794;17.616;2023-07-24T09:23:57;24.40;99.90
56771;DHT22;42641;59.794;17.616;2023-07-24T09:26:34;24.50;99.90
56771;DHT22;42641;59.794;17.616;2023-07-24T09:29:01;24.30;99.90
56771;DHT22;42641;59.794;17.616;2023-07-24T09:31:35;24.00;99.90
56771;DHT22;42641;59.794;17.616;2023-07-24T09:34:02;24.30;99.90
56771;DHT22;42641;59.794;17.616;2023-07-24T09:36:37;24.60;99.90
56771;DHT22;42641;59.794;17.616;2023-07-24T09:39:04;25.00;99.90
56771;DHT22;42641;59.794;17.616;2023-07-24T09:41:32;25.00;99.90
56771;DHT22;42641;59.794;17.616;2023-07-24T09:43:58;25.00;99.90
56771;DHT22;42641;59.794;17.616;2023-07-24T09:46:25;25.00;99.90
56771;DHT22;42641;59.794;17.616;2023-07-24T09:48:52;25.10;99.90
56771;DHT22;42641;59.794;17.616;2023-07-24T09:51:19;25.30;99.90
56771;DHT22;42641;59.794;17.616;2023-07-24T09:54:06;25.40;99.90
56771;DHT22;42641;59.794;17.616;2023-07-24T09:56:35;25.10;99.90
56771;DHT22;42641;59.794;17.616;2023-07-24T09:59:03;25.00;99.90
56771;DHT22;42641;59.794;17.616;2023-07-24T10:01:31;24.80;99.90
56771;DHT22;42641;59.794;17.616;2023-07-24T10:03:59;25.10;99.90
56771;DHT22;42641;59.794;17.616;2023-07-24T10:06:26;25.20;99.90
56771;DHT22;42641;59.794;17.616;2023-07-24T10:08:53;25.20;99.90
56771;DHT22;42641;59.794;17.616;2023-07-24T10:11:20;25.30;99.90
56771;DHT22;42641;59.794;17.616;2023-07-24T10:13:48;25.80;99.90
56771;DHT22;42641;59.794;17.616;2023-07-24T10:16:15;26.20;99.90
56771;DHT22;42641;59.794;17.616;2023-07-24T10:18:44;26.40;99.50
56771;DHT22;42641;59.794;17.616;2023-07-24T10:21:11;26.50;99.50
56771;DHT22;42641;59.794;17.616;2023-07-24T10:23:45;26.50;99.90
56771;DHT22;42641;59.794;17.616;2023-07-24T10:26:15;26.70;99.60
56771;DHT22;42641;59.794;17.616;2023-07-24T10:28:42;26.90;98.60
56771;DHT22;42641;59.794;17.616;2023-07-24T10:33:47;27.00;98.30
56771;DHT22;42641;59.794;17.616;2023-07-24T10:36:18;27.20;97.50
56771;DHT22;42641;59.794;17.616;2023-07-24T10:38:46;27.50;96.40
56771;DHT22;42641;59.794;17.616;2023-07-24T10:41:13;27.70;95.90
56771;DHT22;42641;59.794;17.616;2023-07-24T10:43:50;27.80;94.70
56771;DHT22;42641;59.794;17.616;2023-07-24T10:46:19;28.00;95.10
56771;DHT22;42641;59.794;17.616;2023-07-24T10:48:48;28.20;95.00
56771;DHT22;42641;59.794;17.616;2023-07-24T10:51:15;28.30;94.50
56771;DHT22;42641;59.794;17.616;2023-07-24T10:53:45;28.40;94.40
56771;DHT22;42641;59.794;17.616;2023-07-24T10:56:12;28.30;93.20
56771;DHT22;42641;59.794;17.616;2023-07-24T10:58:39;28.20;93.00
56771;DHT22;42641;59.794;17.616;2023-07-24T11:01:07;27.70;92.50
56771;DHT22;42641;59.794;17.616;2023-07-24T11:03:40;27.30;94.00
56771;DHT22;42641;59.794;17.616;2023-07-24T11:06:13;27.30;93.70
56771;DHT22;42641;59.794;17.616;2023-07-24T11:08:40;27.80;93.20
56771;DHT22;42641;59.794;17.616;2023-07-24T11:11:07;27.80;93.70
56771;DHT22;42641;59.794;17.616;2023-07-24T11:13:34;27.90;93.20
56771;DHT22;42641;59.794;17.616;2023-07-24T11:16:08;27.60;91.40
56771;DHT22;42641;59.794;17.616;2023-07-24T11:18:46;27.80;93.10
56771;DHT22;42641;59.794;17.616;2023-07-24T11:21:15;28.70;92.20
56771;DHT22;42641;59.794;17.616;2023-07-24T11:23:52;29.60;90.70
56771;DHT22;42641;59.794;17.616;2023-07-24T11:26:23;30.00;87.70
56771;DHT22;42641;59.794;17.616;2023-07-24T11:28:51;30.80;83.70
56771;DHT22;42641;59.794;17.616;2023-07-24T11:31:17;30.80;85.90
56771;DHT22;42641;59.794;17.616;2023-07-24T11:33:48;31.20;86.70
56771;DHT22;42641;59.794;17.616;2023-07-24T11:36:15;31.90;86.50
56771;DHT22;42641;59.794;17.616;2023-07-24T11:38:44;32.70;82.10
56771;DHT22;42641;59.794;17.616;2023-07-24T11:41:10;32.10;80.20
56771;DHT22;42641;59.794;17.616;2023-07-24T11:43:48;31.20;82.50
56771;DHT22;42641;59.794;17.616;2023-07-24T11:48:51;30.80;81.50
56771;DHT22;42641;59.794;17.616;2023-07-24T11:51:19;30.00;83.20
56771;DHT22;42641;59.794;17.616;2023-07-24T11:53:46;29.30;83.90
56771;DHT22;42641;59.794;17.616;2023-07-24T11:56:14;29.20;86.80
56771;DHT22;42641;59.794;17.616;2023-07-24T11:58:41;29.20;87.30
56771;DHT22;42641;59.794;17.616;2023-07-24T12:01:07;28.50;86.00
56771;DHT22;42641;59.794;17.616;2023-07-24T12:03:34;28.00;87.20
56771;DHT22;42641;59.794;17.616;2023-07-24T12:06:02;27.80;89.40
56771;DHT22;42641;59.794;17.616;2023-07-24T12:08:33;28.40;88.80
56771;DHT22;42641;59.794;17.616;2023-07-24T12:11:01;29.30;84.30
56771;DHT22;42641;59.794;17.616;2023-07-24T12:13:28;29.40;83.50
56771;DHT22;42641;59.794;17.616;2023-07-24T12:15:56;28.90;81.80
56771;DHT22;42641;59.794;17.616;2023-07-24T12:18:22;28.20;83.50
56771;DHT22;42641;59.794;17.616;2023-07-24T12:20:48;28.20;84.70
56771;DHT22;42641;59.794;17.616;2023-07-24T12:23:15;29.30;81.20
56771;DHT22;42641;59.794;17.616;2023-07-24T12:25:43;30.20;78.30
56771;DHT22;42641;59.794;17.616;2023-07-24T12:28:09;31.00;78.10
56771;DHT22;42641;59.794;17.616;2023-07-24T12:30:36;31.50;77.50
56771;DHT22;42641;59.794;17.616;2023-07-24T12:33:02;32.20;69.10
56771;DHT22;42641;59.794;17.616;2023-07-24T12:35:29;32.00;69.50
56771;DHT22;42641;59.794;17.616;2023-07-24T12:37:55;31.90;70.30
56771;DHT22;42641;59.794;17.616;2023-07-24T12:40:22;31.90;71.00
56771;DHT22;42641;59.794;17.616;2023-07-24T12:42:48;32.30;69.10
56771;DHT22;42641;59.794;17.616;2023-07-24T12:45:15;32.60;69.70
56771;DHT22;42641;59.794;17.616;2023-07-24T12:47:41;32.60;69.50
56771;DHT22;42641;59.794;17.616;2023-07-24T12:50:08;32.40;69.80
56771;DHT22;42641;59.794;17.616;2023-07-24T12:52:35;32.80;71.50
56771;DHT22;42641;59.794;17.616;2023-07-24T12:55:01;33.10;67.80
56771;DHT22;42641;59.794;17.616;2023-07-24T12:57:28;32.80;66.80
56771;DHT22;42641;59.794;17.616;2023-07-24T12:59:55;32.90;67.20
56771;DHT22;42641;59.794;17.616;2023-07-24T13:02:21;33.10;69.00
56771;DHT22;42641;59.794;17.616;2023-07-24T13:04:48;33.50;67.00
56771;DHT22;42641;59.794;17.616;2023-07-24T13:07:14;33.80;64.30
56771;DHT22;42641;59.794;17.616;2023-07-24T13:09:40;33.20;62.90
56771;DHT22;42641;59.794;17.616;2023-07-24T13:12:08;32.30;66.30
56771;DHT22;42641;59.794;17.616;2023-07-24T13:14:34;31.10;67.20
56771;DHT22;42641;59.794;17.616;2023-07-24T13:17:01;31.60;67.20
56771;DHT22;42641;59.794;17.616;2023-07-24T13:19:28;32.20;63.20
56771;DHT22;42641;59.794;17.616;2023-07-24T13:21:54;32.60;62.80
56771;DHT22;42641;59.794;17.616;2023-07-24T13:24:21;33.10;61.30
56771;DHT22;42641;59.794;17.616;2023-07-24T13:26:47;33.30;61.20
56771;DHT22;42641;59.794;17.616;2023-07-24T13:29:14;33.50;62.00
56771;DHT22;42641;59.794;17.616;2023-07-24T13:31:41;33.30;62.20
56771;DHT22;42641;59.794;17.616;2023-07-24T13:34:07;33.00;62.80
56771;DHT22;42641;59.794;17.616;2023-07-24T13:36:36;31.40;64.00
56771;DHT22;42641;59.794;17.616;2023-07-24T13:39:03;30.30;65.20
56771;DHT22;42641;59.794;17.616;2023-07-24T13:41:29;29.40;67.00
56771;DHT22;42641;59.794;17.616;2023-07-24T13:43:56;29.50;67.30
56771;DHT22;42641;59.794;17.616;2023-07-24T13:46:22;29.20;68.90
56771;DHT22;42641;59.794;17.616;2023-07-24T13:48:49;28.70;70.00
56771;DHT22;42641;59.794;17.616;2023-07-24T13:51:15;28.30;69.30
56771;DHT22;42641;59.794;17.616;2023-07-24T13:53:42;27.70;67.40
56771;DHT22;42641;59.794;17.616;2023-07-24T13:56:08;27.70;68.40
56771;DHT22;42641;59.794;17.616;2023-07-24T13:58:35;27.90;66.20
56771;DHT22;42641;59.794;17.616;2023-07-24T14:01:02;28.10;66.30
56771;DHT22;42641;59.794;17.616;2023-07-24T14:03:28;28.80;63.60
56771;DHT22;42641;59.794;17.616;2023-07-24T14:05:55;29.60;63.00
56771;DHT22;42641;59.794;17.616;2023-07-24T14:08:22;30.40;62.10
56771;DHT22;42641;59.794;17.616;2023-07-24T14:10:49;31.10;60.90
56771;DHT22;42641;59.794;17.616;2023-07-24T14:13:16;31.80;59.10
56771;DHT22;42641;59.794;17.616;2023-07-24T14:15:42;32.20;56.70
56771;DHT22;42641;59.794;17.616;2023-07-24T14:18:09;32.50;56.80
56771;DHT22;42641;59.794;17.616;2023-07-24T14:20:35;32.40;55.60
56771;DHT22;42641;59.794;17.616;2023-07-24T14:23:03;32.60;56.20
56771;DHT22;42641;59.794;17.616;2023-07-24T14:25:29;32.90;55.80
56771;DHT22;42641;59.794;17.616;2023-07-24T14:27:56;33.20;55.80
56771;DHT22;42641;59.794;17.616;2023-07-24T14:30:22;33.70;55.20
56771;DHT22;42641;59.794;17.616;2023-07-24T14:32:49;33.80;55.00
56771;DHT22;42641;59.794;17.616;2023-07-24T14:35:16;34.10;55.80
56771;DHT22;42641;59.794;17.616;2023-07-24T14:37:43;34.30;54.00
56771;DHT22;42641;59.794;17.616;2023-07-24T14:40:10;34.20;54.50
56771;DHT22;42641;59.794;17.616;2023-07-24T14:42:38;33.80;54.60
56771;DHT22;42641;59.794;17.616;2023-07-24T14:45:05;33.10;54.70
56771;DHT22;42641;59.794;17.616;2023-07-24T14:47:32;33.00;55.90
56771;DHT22;42641;59.794;17.616;2023-07-24T14:49:58;33.30;55.60
56771;DHT22;42641;59.794;17.616;2023-07-24T14:52:25;33.50;54.50
56771;DHT22;42641;59.794;17.616;2023-07-24T14:54:51;33.50;53.10
56771;DHT22;42641;59.794;17.616;2023-07-24T14:57:18;33.30;53.60
56771;DHT22;42641;59.794;17.616;2023-07-24T14:59:44;33.10;53.20
56771;DHT22;42641;59.794;17.616;2023-07-24T15:02:10;33.00;53.40
56771;DHT22;42641;59.794;17.616;2023-07-24T15:04:37;33.00;52.50
56771;DHT22;42641;59.794;17.616;2023-07-24T15:07:04;32.90;52.50
56771;DHT22;42641;59.794;17.616;2023-07-24T15:09:30;32.70;52.90
56771;DHT22;42641;59.794;17.616;2023-07-24T15:11:57;32.80;52.80
56771;DHT22;42641;59.794;17.616;2023-07-24T15:14:23;32.80;52.10
56771;DHT22;42641;59.794;17.616;2023-07-24T15:16:51;32.60;51.00
56771;DHT22;42641;59.794;17.616;2023-07-24T15:19:18;32.20;50.40
56771;DHT22;42641;59.794;17.616;2023-07-24T15:21:44;31.70;53.10